createdAt,value
2018-06-20T00:00:55.563Z,21.00
2018-06-20T00:03:25.945Z,21.00
2018-06-20T00:05:56.733Z,21.00
2018-06-20T00:08:27.355Z,21.00
2018-06-20T00:10:57.752Z,21.00
2018-06-20T00:13:28.292Z,21.00
2018-06-20T00:15:59.116Z,21.10
2018-06-20T00:18:29.586Z,21.00
2018-06-20T00:21:00.330Z,21.00
2018-06-20T00:26:00.676Z,21.10
2018-06-20T00:28:31.202Z,21.10
2018-06-20T00:31:01.586Z,21.10
2018-06-20T00:33:32.158Z,21.10
2018-06-20T00:36:03.042Z,21.10
2018-06-20T00:38:33.779Z,21.10
2018-06-20T00:41:04.145Z,21.10
2018-06-20T00:43:34.623Z,21.10
2018-06-20T00:46:05.419Z,21.10
2018-06-20T00:48:35.944Z,21.00
2018-06-20T00:51:06.473Z,21.00
2018-06-20T00:53:36.885Z,20.90
2018-06-20T00:56:18.137Z,20.90
2018-06-20T00:58:48.909Z,20.90
2018-06-20T01:01:19.602Z,20.80
2018-06-20T01:11:25.281Z,20.70
2018-06-20T01:13:55.769Z,20.60
2018-06-20T01:18:56.381Z,20.70
2018-06-20T01:21:26.731Z,20.60
2018-06-20T01:23:57.630Z,20.60
2018-06-20T01:26:28.022Z,20.50
2018-06-20T01:28:58.475Z,20.50
2018-06-20T01:31:29.058Z,20.40
2018-06-20T01:33:59.471Z,20.40
2018-06-20T01:36:29.976Z,20.40
2018-06-20T01:39:00.518Z,20.30
2018-06-20T01:41:31.108Z,20.30
2018-06-20T01:44:01.711Z,20.30
2018-06-20T01:46:32.183Z,20.30
2018-06-20T01:49:02.784Z,20.30
2018-06-20T01:51:33.186Z,20.30
2018-06-20T01:54:03.630Z,20.30
2018-06-20T01:56:34.323Z,20.20
2018-06-20T01:59:04.686Z,20.20
2018-06-20T02:01:35.518Z,20.20
2018-06-20T02:04:05.918Z,20.20
2018-06-20T02:09:07.958Z,20.10
2018-06-20T02:16:37.854Z,20.00
2018-06-20T02:19:08.481Z,20.00
2018-06-20T02:21:39.119Z,19.90
2018-06-20T02:24:09.627Z,19.90
2018-06-20T02:26:40.234Z,19.90
2018-06-20T02:29:11.007Z,19.90
2018-06-20T02:31:41.638Z,19.90
2018-06-20T02:36:42.051Z,19.80
2018-06-20T02:39:12.437Z,19.80
2018-06-20T02:41:42.868Z,19.70
2018-06-20T02:44:13.361Z,19.70
2018-06-20T02:46:43.744Z,19.70
2018-06-20T02:49:14.159Z,19.70
2018-06-20T02:51:44.607Z,19.70
2018-06-20T02:54:15.065Z,19.80
2018-06-20T02:59:15.689Z,19.70
2018-06-20T03:01:46.162Z,19.70
2018-06-20T03:04:16.560Z,19.70
2018-06-20T03:09:22.005Z,19.70
2018-06-20T03:11:52.430Z,19.80
2018-06-20T03:14:22.829Z,19.80
2018-06-20T03:16:53.292Z,19.80
2018-06-20T03:19:25.304Z,19.90
2018-06-20T03:21:55.894Z,19.90
2018-06-20T03:26:56.682Z,20.00
2018-06-20T03:29:27.081Z,20.00
2018-06-20T03:31:57.635Z,20.00
2018-06-20T03:34:28.289Z,20.00
2018-06-20T03:39:28.462Z,20.00
2018-06-20T03:41:58.886Z,20.00
2018-06-20T03:44:29.384Z,20.00
2018-06-20T03:46:59.765Z,20.10
2018-06-20T03:49:30.382Z,20.20
2018-06-20T03:52:00.914Z,20.30
2018-06-20T03:54:31.387Z,20.30
2018-06-20T03:59:32.126Z,20.40
2018-06-20T04:02:02.405Z,20.50
2018-06-20T04:04:32.893Z,20.60
2018-06-20T04:07:03.323Z,20.70
2018-06-20T04:09:33.795Z,20.80
2018-06-20T04:12:04.301Z,20.80
2018-06-20T04:14:34.700Z,20.80
2018-06-20T04:19:35.169Z,20.90
2018-06-20T04:22:05.655Z,21.00
2018-06-20T04:24:36.115Z,21.00
2018-06-20T04:27:06.586Z,21.00
2018-06-20T04:29:36.942Z,21.10
2018-06-20T04:32:07.637Z,21.10
2018-06-20T04:34:38.474Z,21.10
2018-06-20T04:37:09.001Z,21.10
2018-06-20T04:39:39.434Z,21.00
2018-06-20T04:42:09.832Z,21.10
2018-06-20T04:44:40.269Z,21.10
2018-06-20T04:47:10.786Z,21.20
2018-06-20T04:49:41.736Z,21.20
2018-06-20T04:52:12.225Z,21.30
2018-06-20T04:54:42.544Z,21.40
2018-06-20T04:57:12.962Z,21.60
2018-06-20T04:59:43.341Z,21.70
2018-06-20T05:02:14.004Z,21.80
2018-06-20T05:04:44.552Z,21.80
2018-06-20T05:07:15.497Z,21.90
2018-06-20T05:09:46.093Z,22.00
2018-06-20T05:12:16.481Z,22.30
2018-06-20T05:17:16.673Z,22.50
2018-06-20T05:19:47.229Z,22.80
2018-06-20T05:22:17.641Z,23.00
2018-06-20T05:24:48.085Z,23.20
2018-06-20T05:27:18.562Z,23.40
2018-06-20T05:29:49.042Z,23.50
2018-06-20T05:32:19.552Z,23.70
2018-06-20T05:34:50.033Z,24.00
2018-06-20T05:37:20.529Z,24.20
2018-06-20T05:42:20.810Z,24.40
2018-06-20T05:44:51.252Z,24.60
2018-06-20T05:47:21.703Z,24.70
2018-06-20T05:49:52.365Z,24.70
2018-06-20T05:52:22.863Z,24.60
2018-06-20T05:54:53.602Z,24.70
2018-06-20T05:57:24.197Z,24.80
2018-06-20T05:59:54.732Z,24.80
2018-06-20T06:02:25.173Z,25.00
2018-06-20T06:04:55.627Z,25.00
2018-06-20T06:09:56.482Z,25.10
2018-06-20T06:14:56.773Z,25.40
2018-06-20T06:17:27.130Z,25.70
2018-06-20T06:19:57.661Z,26.00
2018-06-20T06:22:28.325Z,25.80
2018-06-20T06:24:58.757Z,26.00
2018-06-20T06:27:29.275Z,26.20
2018-06-20T06:29:59.811Z,26.50
2018-06-20T06:32:30.177Z,26.80
2018-06-20T06:35:00.697Z,27.10
2018-06-20T06:37:31.220Z,27.40
2018-06-20T06:42:31.657Z,27.10
2018-06-20T06:45:02.126Z,27.20
2018-06-20T06:47:32.950Z,27.30
2018-06-20T06:50:03.448Z,27.60
2018-06-20T06:52:33.997Z,28.00
2018-06-20T06:55:04.514Z,28.10
2018-06-20T06:57:35.042Z,28.00
2018-06-20T07:00:05.812Z,28.00
2018-06-20T07:02:36.351Z,28.20
2018-06-20T07:05:06.833Z,27.80
2018-06-20T07:07:37.330Z,27.80
2018-06-20T07:10:07.671Z,27.90
2018-06-20T07:12:38.330Z,27.90
2018-06-20T07:15:08.713Z,28.00
2018-06-20T07:17:39.365Z,27.90
2018-06-20T07:20:10.126Z,28.10
2018-06-20T07:22:40.457Z,28.60
2018-06-20T07:25:10.969Z,28.80
2018-06-20T07:27:41.598Z,28.90
2018-06-20T07:30:12.199Z,29.00
2018-06-20T07:32:42.828Z,29.00
2018-06-20T07:35:13.358Z,28.90
2018-06-20T07:37:44.458Z,28.80
2018-06-20T07:42:44.674Z,28.50
2018-06-20T07:45:15.351Z,28.40
2018-06-20T07:47:46.011Z,28.90
2018-06-20T07:50:16.538Z,28.80
2018-06-20T07:52:46.948Z,29.10
2018-06-20T07:55:17.540Z,29.00
2018-06-20T07:57:48.095Z,29.20
2018-06-20T08:03:09.195Z,29.60
2018-06-20T08:05:44.717Z,30.00
2018-06-20T08:08:20.299Z,30.20
2018-06-20T08:10:55.666Z,30.40
2018-06-20T08:13:31.579Z,30.60
2018-06-20T08:16:06.981Z,30.80
2018-06-20T08:18:42.768Z,30.90
2018-06-20T08:21:13.665Z,30.80
2018-06-20T08:23:44.129Z,30.90
2018-06-20T08:26:14.722Z,31.10
2018-06-20T08:28:51.945Z,31.10
2018-06-20T08:31:25.388Z,31.30
2018-06-20T08:33:57.354Z,31.20
2018-06-20T08:36:28.622Z,31.30
2018-06-20T08:38:59.776Z,31.50
2018-06-20T08:41:31.080Z,31.70
2018-06-20T08:44:01.673Z,31.70
2018-06-20T08:46:33.042Z,31.60
2018-06-20T08:49:04.122Z,31.70
2018-06-20T08:51:35.254Z,31.80
2018-06-20T08:54:06.587Z,31.80
2018-06-20T08:56:37.231Z,31.90
2018-06-20T08:59:08.621Z,31.80
2018-06-20T09:01:40.119Z,31.50
2018-06-20T09:04:15.534Z,31.00
2018-06-20T09:06:51.055Z,30.50
2018-06-20T09:09:26.226Z,30.20
2018-06-20T09:12:01.796Z,30.30
2018-06-20T09:14:36.554Z,30.80
2018-06-20T09:17:16.559Z,31.20
2018-06-20T09:19:50.470Z,31.50
2018-06-20T09:22:21.657Z,31.60
2018-06-20T09:24:53.778Z,31.00
2018-06-20T09:27:25.702Z,30.50
2018-06-20T09:29:57.685Z,30.10
2018-06-20T09:32:29.942Z,30.00
2018-06-20T09:35:02.383Z,30.40
2018-06-20T09:37:32.849Z,30.80
2018-06-20T09:40:03.357Z,31.10
2018-06-20T09:42:33.899Z,31.50
2018-06-20T09:45:04.361Z,31.80
2018-06-20T09:47:35.027Z,31.90
2018-06-20T09:50:10.675Z,32.00
2018-06-20T09:52:41.220Z,32.10
2018-06-20T09:55:11.634Z,32.30
2018-06-20T09:57:42.070Z,32.40
2018-06-20T10:01:20.171Z,32.50
2018-06-20T10:03:55.735Z,32.70
2018-06-20T10:06:31.153Z,32.70
2018-06-20T10:09:06.503Z,32.80
2018-06-20T10:11:41.984Z,32.80
2018-06-20T10:14:14.578Z,32.90
2018-06-20T10:16:45.271Z,32.80
2018-06-20T10:19:16.620Z,33.00
2018-06-20T10:21:47.216Z,33.00
2018-06-20T10:24:17.650Z,33.00
2018-06-20T10:26:48.179Z,32.90
2018-06-20T10:29:18.649Z,32.80
2018-06-20T10:31:49.351Z,32.70
2018-06-20T10:34:20.230Z,32.70
2018-06-20T10:36:50.772Z,32.90
2018-06-20T10:41:51.141Z,33.20
2018-06-20T10:44:21.554Z,32.70
2018-06-20T10:46:56.981Z,32.80
2018-06-20T10:49:27.629Z,32.80
2018-06-20T10:51:58.927Z,33.10
2018-06-20T10:54:29.427Z,33.30
2018-06-20T10:57:04.941Z,32.70
2018-06-20T10:59:40.329Z,32.20
2018-06-20T11:02:15.898Z,31.90
2018-06-20T11:04:52.030Z,31.90
2018-06-20T11:08:26.408Z,32.40
2018-06-20T11:11:02.235Z,32.90
2018-06-20T11:13:33.010Z,33.20
2018-06-20T11:16:03.613Z,33.50
2018-06-20T11:18:36.126Z,33.50
2018-06-20T11:21:06.898Z,33.50
2018-06-20T11:23:37.545Z,33.60
2018-06-20T11:26:07.959Z,33.80
2018-06-20T11:28:38.641Z,33.90
2018-06-20T11:31:09.126Z,34.00
2018-06-20T11:33:39.769Z,33.80
2018-06-20T11:36:10.209Z,33.70
2018-06-20T11:38:40.678Z,33.70
2018-06-20T11:41:11.187Z,33.60
2018-06-20T11:43:41.675Z,33.50
2018-06-20T11:46:17.203Z,33.50
2018-06-20T11:48:47.702Z,33.50
2018-06-20T11:51:18.113Z,32.90
2018-06-20T11:53:48.765Z,32.60
2018-06-20T11:56:19.339Z,32.90
2018-06-20T12:01:29.799Z,33.30
2018-06-20T12:04:05.266Z,33.50
2018-06-20T12:06:40.913Z,33.20
2018-06-20T12:09:16.421Z,32.70
2018-06-20T12:11:51.929Z,32.20
2018-06-20T12:14:27.462Z,31.70
2018-06-20T12:16:57.095Z,31.40
2018-06-20T12:19:32.543Z,31.10
2018-06-20T12:22:08.326Z,31.00
2018-06-20T12:24:43.901Z,30.90
2018-06-20T12:29:54.319Z,30.50
2018-06-20T12:32:29.908Z,31.00
2018-06-20T12:35:05.536Z,31.10
2018-06-20T12:37:40.937Z,31.20
2018-06-20T12:40:14.450Z,31.10
2018-06-20T12:43:47.852Z,31.00
2018-06-20T12:46:24.507Z,30.90
2018-06-20T12:48:55.169Z,30.60
2018-06-20T12:51:25.704Z,30.50
2018-06-20T12:53:56.203Z,30.90
2018-06-20T12:56:26.816Z,30.80
2018-06-20T12:58:57.306Z,30.70
2018-06-20T13:01:36.941Z,30.40
2018-06-20T13:04:10.310Z,30.20
2018-06-20T13:06:41.432Z,29.90
2018-06-20T13:09:13.540Z,30.00
2018-06-20T13:11:44.507Z,30.30
2018-06-20T13:14:15.674Z,30.80
2018-06-20T13:16:47.081Z,30.90
2018-06-20T13:19:18.528Z,31.50
2018-06-20T13:21:49.161Z,31.90
2018-06-20T13:24:20.942Z,32.10
2018-06-20T13:26:51.956Z,32.20
2018-06-20T13:29:23.710Z,32.40
2018-06-20T13:31:59.431Z,32.30
2018-06-20T13:34:34.919Z,32.40
2018-06-20T13:37:10.553Z,32.50
2018-06-20T13:42:21.282Z,31.80
2018-06-20T13:44:51.870Z,31.30
2018-06-20T13:47:27.259Z,31.20
2018-06-20T13:49:58.746Z,31.50
2018-06-20T13:52:29.374Z,31.30
2018-06-20T13:54:59.826Z,30.90
2018-06-20T13:57:30.274Z,30.80
2018-06-20T14:02:31.134Z,31.30
2018-06-20T14:05:02.282Z,31.80
2018-06-20T14:07:32.805Z,32.20
2018-06-20T14:10:03.507Z,32.40
2018-06-20T14:12:34.092Z,31.80
2018-06-20T14:15:04.580Z,32.00
2018-06-20T14:17:34.994Z,31.80
2018-06-20T14:22:41.015Z,31.10
2018-06-20T14:25:11.591Z,30.90
2018-06-20T14:30:11.723Z,30.80
2018-06-20T14:32:47.193Z,30.70
2018-06-20T14:35:22.495Z,30.50
2018-06-20T14:37:58.078Z,30.30
2018-06-20T14:40:33.429Z,30.20
2018-06-20T14:43:08.957Z,30.10
2018-06-20T14:45:44.189Z,29.90
2018-06-20T14:48:14.768Z,29.80
2018-06-20T14:50:45.202Z,29.70
2018-06-20T14:55:45.617Z,29.40
2018-06-20T14:58:16.169Z,29.20
2018-06-20T15:00:46.860Z,29.20
2018-06-20T15:03:17.442Z,29.30
2018-06-20T15:05:54.116Z,29.30
2018-06-20T15:08:24.510Z,29.40
2018-06-20T15:10:55.019Z,29.30
2018-06-20T15:13:25.507Z,29.40
2018-06-20T15:15:56.096Z,29.30
2018-06-20T15:18:26.477Z,29.10
2018-06-20T15:20:56.916Z,28.90
2018-06-20T15:23:27.467Z,28.80
2018-06-20T15:26:02.922Z,28.60
2018-06-20T15:28:38.374Z,28.50
2018-06-20T15:31:13.759Z,28.40
2018-06-20T15:33:49.293Z,28.40
2018-06-20T15:36:24.727Z,28.40
2018-06-20T15:38:55.222Z,28.40
2018-06-20T15:41:25.786Z,28.40
2018-06-20T15:43:56.194Z,28.40
2018-06-20T15:46:26.669Z,28.30
2018-06-20T15:48:57.230Z,28.30
2018-06-20T15:51:27.715Z,28.20
2018-06-20T15:53:58.327Z,28.20
2018-06-20T15:56:28.814Z,28.10
2018-06-20T15:58:59.387Z,28.00
2018-06-20T16:01:29.969Z,28.00
2018-06-20T16:04:00.665Z,28.00
2018-06-20T16:06:31.073Z,28.00
2018-06-20T16:09:06.779Z,28.00
2018-06-20T16:11:37.238Z,27.90
2018-06-20T16:14:07.991Z,27.90
2018-06-20T16:16:38.444Z,27.90
2018-06-20T16:19:13.822Z,27.80
2018-06-20T16:21:49.258Z,27.80
2018-06-20T16:24:24.732Z,27.70
2018-06-20T16:27:00.102Z,27.70
2018-06-20T16:29:35.569Z,27.60
2018-06-20T16:32:06.005Z,27.50
2018-06-20T16:34:36.402Z,27.50
2018-06-20T16:37:06.862Z,27.40
2018-06-20T16:39:37.713Z,27.30
2018-06-20T16:42:08.171Z,27.30
2018-06-20T16:44:38.734Z,27.20
2018-06-20T16:47:09.428Z,27.20
2018-06-20T16:49:39.926Z,27.20
2018-06-20T16:52:10.331Z,27.10
2018-06-20T16:54:42.239Z,27.00
2018-06-20T16:57:13.039Z,27.00
2018-06-20T16:59:43.881Z,27.00
2018-06-20T17:02:19.351Z,27.00
2018-06-20T17:04:49.969Z,26.90
2018-06-20T17:07:20.914Z,26.70
2018-06-20T17:09:51.334Z,26.60
2018-06-20T17:12:26.712Z,26.50
2018-06-20T17:15:02.281Z,26.30
2018-06-20T17:17:38.291Z,26.20
2018-06-20T17:20:13.867Z,26.20
2018-06-20T17:22:49.324Z,26.20
2018-06-20T17:25:25.390Z,26.20
2018-06-20T17:27:55.753Z,26.10
2018-06-20T17:30:26.397Z,26.10
2018-06-20T17:32:56.822Z,26.10
2018-06-20T17:35:27.383Z,26.10
2018-06-20T17:37:57.913Z,26.00
2018-06-20T17:40:28.506Z,25.90
2018-06-20T18:33:03.698Z,25.00
2018-06-20T18:35:36.105Z,25.40
2018-06-20T18:38:08.064Z,25.40
2018-06-20T18:40:38.990Z,25.30
2018-06-20T18:43:16.213Z,25.30
2018-06-20T18:45:46.686Z,25.20
2018-06-20T18:48:22.116Z,25.20
2018-06-20T18:50:52.723Z,25.20
2018-06-20T18:53:24.971Z,25.20
2018-06-20T18:55:55.710Z,25.20
2018-06-20T18:58:31.406Z,25.10
2018-06-20T19:01:10.730Z,25.00
2018-06-20T19:03:46.898Z,24.90
2018-06-20T19:06:22.413Z,24.80
2018-06-20T19:08:59.579Z,24.70
2018-06-20T19:11:32.615Z,24.60
2018-06-20T19:14:04.439Z,24.50
2018-06-20T19:16:35.110Z,24.50
2018-06-20T19:21:35.888Z,24.40
2018-06-20T19:24:06.332Z,24.40
2018-06-20T19:26:36.987Z,24.40
2018-06-20T19:29:07.441Z,24.30
2018-06-20T19:31:38.510Z,24.30
2018-06-20T19:34:10.140Z,24.20
2018-06-20T19:36:44.259Z,24.30
2018-06-20T19:39:20.893Z,24.20
2018-06-20T19:41:55.398Z,24.20
2018-06-20T19:44:31.312Z,24.20
2018-06-20T19:47:07.142Z,24.10
2018-06-20T19:49:42.312Z,24.20
2018-06-20T19:52:13.817Z,24.10
2018-06-20T19:54:46.828Z,24.10
2018-06-20T19:57:19.587Z,24.10
2018-06-20T19:59:53.875Z,24.10
2018-06-20T20:02:30.988Z,24.10
2018-06-20T20:05:04.411Z,24.10
2018-06-20T20:07:36.406Z,24.10
2018-06-20T20:10:09.681Z,24.10
2018-06-20T20:12:46.048Z,24.10
2018-06-20T20:15:19.295Z,24.00
2018-06-20T20:17:51.275Z,24.00
2018-06-20T20:20:23.786Z,23.90
2018-06-20T20:22:57.467Z,23.90
2018-06-20T20:25:29.810Z,23.90
2018-06-20T20:28:02.073Z,23.80
2018-06-20T20:30:33.693Z,23.80
2018-06-20T20:33:06.672Z,23.80
2018-06-20T20:35:38.183Z,23.80
2018-06-20T20:38:10.131Z,23.80
2018-06-20T20:40:42.215Z,23.70
2018-06-20T20:43:13.528Z,23.80
2018-06-20T20:45:45.673Z,23.80
2018-06-20T20:48:17.634Z,23.70
2018-06-20T20:50:49.236Z,23.70
2018-06-20T20:53:24.267Z,23.70
2018-06-20T20:55:58.222Z,23.70
2018-06-20T20:58:29.333Z,23.70
2018-06-20T21:01:09.613Z,23.70
2018-06-20T21:03:43.294Z,23.60
2018-06-20T21:06:14.113Z,23.50
2018-06-20T21:08:47.069Z,23.40
2018-06-20T21:13:48.923Z,23.40
2018-06-20T21:16:20.477Z,23.30
2018-06-20T21:18:52.084Z,23.30
2018-06-20T21:21:25.432Z,23.30
2018-06-20T21:23:56.283Z,23.20
2018-06-20T21:26:26.630Z,23.20
2018-06-20T21:28:57.074Z,23.20
2018-06-20T21:31:27.404Z,23.20
2018-06-20T21:33:57.792Z,23.20
2018-06-20T21:36:28.199Z,23.20
2018-06-20T21:38:58.679Z,23.20
2018-06-20T21:41:29.010Z,23.20
2018-06-20T21:43:59.357Z,23.20
2018-06-20T21:46:29.881Z,23.10
2018-06-20T21:49:00.478Z,23.10
2018-06-20T21:51:30.955Z,23.10
2018-06-20T21:54:01.352Z,23.10
2018-06-20T21:56:32.169Z,23.00
2018-06-20T21:59:02.809Z,23.00
2018-06-20T22:01:33.445Z,23.00
2018-06-20T22:04:04.360Z,23.00
2018-06-20T22:06:34.795Z,22.90
2018-06-20T22:09:07.466Z,22.90
2018-06-20T22:11:38.000Z,23.00
2018-06-20T22:14:09.754Z,22.90
2018-06-20T22:16:40.085Z,23.00
2018-06-20T22:19:10.550Z,22.90
2018-06-20T22:21:41.047Z,22.90
2018-06-20T22:24:11.433Z,22.90
2018-06-20T22:26:41.802Z,22.90
2018-06-20T22:29:12.525Z,22.90
2018-06-20T22:31:42.930Z,22.90
2018-06-20T22:36:43.038Z,23.00
2018-06-20T22:39:13.321Z,23.00
2018-06-20T22:41:43.758Z,23.00
2018-06-20T22:44:14.308Z,23.00
2018-06-20T22:46:44.622Z,23.20
2018-06-20T22:49:15.059Z,23.20
2018-06-20T22:51:45.558Z,23.10
2018-06-20T22:54:15.987Z,23.10
2018-06-20T22:56:46.421Z,23.20
2018-06-20T22:59:16.829Z,23.20
2018-06-20T23:01:47.266Z,23.20
2018-06-20T23:04:17.757Z,23.20
2018-06-20T23:06:48.087Z,23.20
2018-06-20T23:09:18.630Z,23.20
2018-06-20T23:11:50.107Z,23.10
2018-06-20T23:14:20.522Z,23.00
2018-06-20T23:16:50.929Z,22.90
2018-06-20T23:19:21.791Z,22.80
2018-06-20T23:21:52.419Z,22.80
2018-06-20T23:24:22.902Z,22.70
2018-06-20T23:26:53.315Z,22.60
2018-06-20T23:29:23.893Z,22.60
2018-06-20T23:31:54.378Z,22.50
2018-06-20T23:34:24.773Z,22.50
2018-06-20T23:36:55.129Z,22.40
2018-06-20T23:39:25.923Z,22.40
2018-06-20T23:41:56.243Z,22.40
2018-06-20T23:44:26.671Z,22.40
2018-06-20T23:46:57.258Z,22.30
2018-06-20T23:51:57.429Z,22.30
2018-06-20T23:54:27.975Z,22.30
2018-06-20T23:56:58.470Z,22.30
2018-06-20T23:59:28.904Z,22.30
